Aviation Digital Data Service (ADDS)

Output produced by TAFs form (0226 UTC 02 August 2014)
found at http://www.aviationweather.gov/adds/tafs/
 
KMRB 012340Z 0200/0224 16006KT P6SM SKC 
     FM020300 15004KT P6SM SCT020 OVC030 
     FM020400 VRB03KT P6SM OVC020 
     FM020800 00000KT P6SM SCT008 OVC010 
     FM021400 05004KT P6SM OVC015 
     FM021700 07005KT P6SM SCT015 OVC040